Bookmark and Share
Track history (hours):
 

Orange8

Last reported at 2014-Apr-24 08:29 UTC. Time now 2014-Apr-24 09:18 UTC.
Position N 34°37' E 135°26'.

Length 164 m; draft 5 m.

Type: Passenger vessel. MMSI: 431501603.

NotesDate/timePositionNaut miles runAvg speedWind from/ knotsBaromVisibWave heightAir tempDewpointWater temp
2014-Apr-24 08:29N 34°37' E 135°26'0 0.0
2014-Apr-24 07:29N 34°37' E 135°26'0 0.0
2014-Apr-24 06:29N 34°37' E 135°26'0 0.0
2014-Apr-24 05:29N 34°37' E 135°26'0 0.0
2014-Apr-24 04:29N 34°37' E 135°26'0 0.0
2014-Apr-24 03:29N 34°37' E 135°26'0 0.0
2014-Apr-24 02:17N 34°37' E 135°26'0 0.0
2014-Apr-24 01:29N 34°37' E 135°26'0 0.0
2014-Apr-24 00:29N 34°37' E 135°26'0 0.0
2014-Apr-23 23:17N 34°37' E 135°26'0 0.0
2014-Apr-23 22:05N 34°37' E 135°26'0 0.0
2014-Apr-23 21:29N 34°37' E 135°26'7 8.0
2014-Apr-23 20:33N 34°36' E 135°17'1918.3
2014-Apr-23 19:32N 34°35' E 134°54'3 0.1
2014-Apr-22 14:33N 34°37' E 134°57'1817.7
2014-Apr-22 13:33N 34°37' E 135°19'6 5.3
2014-Apr-22 12:28N 34°37' E 135°26'0 0.0
2014-Apr-22 11:28N 34°37' E 135°26'0 0.0
2014-Apr-22 10:22N 34°37' E 135°26'0 0.0
2014-Apr-22 09:28N 34°37' E 135°26'0 0.0
2014-Apr-22 08:28N 34°37' E 135°26'0 0.0
2014-Apr-22 07:28N 34°37' E 135°26'0 0.0
2014-Apr-22 06:28N 34°37' E 135°26'0 0.0
2014-Apr-22 05:16N 34°37' E 135°26'0 0.0
2014-Apr-22 04:28N 34°37' E 135°26'0 0.0
2014-Apr-22 03:28N 34°37' E 135°26'0 0.0
2014-Apr-22 02:22N 34°37' E 135°26'0 0.0
2014-Apr-22 01:28N 34°37' E 135°26'0 0.0
2014-Apr-22 00:22N 34°37' E 135°26'0 0.0
2014-Apr-21 23:28N 34°37' E 135°26'0 0.0
2014-Apr-21 22:28N 34°37' E 135°26'0 0.0
2014-Apr-21 21:28N 34°37' E 135°26'6 6.3
2014-Apr-21 20:34N 34°36' E 135°19'1818.3
2014-Apr-21 19:34N 34°36' E 134°57'2 0.1
2014-Apr-20 14:33N 34°36' E 134°55'1919.1
2014-Apr-20 13:33N 34°36' E 135°18'6 5.9
2014-Apr-20 12:30N 34°37' E 135°26'0 0.0
2014-Apr-20 11:30N 34°37' E 135°26'0 0.0
2014-Apr-20 10:30N 34°37' E 135°26'0 0.0
2014-Apr-20 09:30N 34°37' E 135°26'0 0.0
2014-Apr-20 08:24N 34°37' E 135°26'0 0.0
2014-Apr-20 07:24N 34°37' E 135°26'0 0.0
2014-Apr-20 06:30N 34°37' E 135°26'0 0.0
2014-Apr-20 05:30N 34°37' E 135°26'0 0.0
2014-Apr-20 04:30N 34°37' E 135°26'0 0.0
2014-Apr-20 03:30N 34°37' E 135°26'0 0.0
2014-Apr-20 02:30N 34°37' E 135°26'0 0.0
2014-Apr-20 01:30N 34°37' E 135°26'0 0.0
2014-Apr-20 00:06N 34°37' E 135°26'0 0.0
2014-Apr-19 23:24N 34°37' E 135°26'0 0.0
2014-Apr-19 22:30N 34°37' E 135°26'0 0.0
2014-Apr-19 21:30N 34°37' E 135°26'6 6.5
2014-Apr-19 20:33N 34°36' E 135°19'1818.4
2014-Apr-19 19:33N 34°36' E 134°56'1 0.0
2014-Apr-18 14:33N 34°37' E 134°56'1919.1
2014-Apr-18 13:33N 34°37' E 135°19'6 5.4
2014-Apr-18 12:30N 34°37' E 135°26'0 0.0
2014-Apr-18 11:30N 34°37' E 135°26'0 0.0
2014-Apr-18 10:30N 34°37' E 135°26'0 0.0
2014-Apr-18 09:30N 34°37' E 135°26'0 0.0
2014-Apr-18 08:30N 34°37' E 135°26'0 0.0
2014-Apr-18 07:24N 34°37' E 135°26'0 0.0
2014-Apr-18 06:30N 34°37' E 135°26'0 0.0
2014-Apr-18 05:30N 34°37' E 135°26'0 0.0
2014-Apr-18 04:30N 34°37' E 135°26'0 0.0
2014-Apr-18 03:30N 34°37' E 135°26'0 0.0
2014-Apr-18 02:30N 34°37' E 135°26'0 0.0
2014-Apr-18 01:30N 34°37' E 135°26'0 0.0
2014-Apr-18 00:30N 34°37' E 135°26'0 0.0
2014-Apr-17 23:18N 34°37' E 135°26'0 0.0
2014-Apr-17 22:06N 34°37' E 135°26'0 0.0
2014-Apr-17 21:30N 34°37' E 135°26'7 7.5
2014-Apr-17 20:33N 34°35' E 135°18'1818.4
2014-Apr-17 19:33N 34°36' E 134°55'1 0.0
2014-Apr-16 14:33N 34°37' E 134°56'1818.5
2014-Apr-16 13:33N 34°37' E 135°19'6 5.4
2014-Apr-16 12:28N 34°37' E 135°26'0 0.0
2014-Apr-16 11:28N 34°37' E 135°26'0 0.0
2014-Apr-16 10:22N 34°37' E 135°26'0 0.0
2014-Apr-16 09:16N 34°37' E 135°26'0 0.0
2014-Apr-16 08:22N 34°37' E 135°26'0 0.0
2014-Apr-16 07:28N 34°37' E 135°26'0 0.0
2014-Apr-16 06:22N 34°37' E 135°26'0 0.0
2014-Apr-16 05:28N 34°37' E 135°26'0 0.0
2014-Apr-16 04:28N 34°37' E 135°26'0 0.0
2014-Apr-16 03:28N 34°37' E 135°26'0 0.0
2014-Apr-16 02:28N 34°37' E 135°26'0 0.0
2014-Apr-16 01:28N 34°37' E 135°26'0 0.0
2014-Apr-16 00:28N 34°37' E 135°26'0 0.0
2014-Apr-15 23:22N 34°37' E 135°26'0 0.0
2014-Apr-15 22:16N 34°37' E 135°26'0 0.0
2014-Apr-15 21:28N 34°37' E 135°26'6 6.4
2014-Apr-15 20:33N 34°36' E 135°19'1917.6
2014-Apr-15 19:30N 34°36' E 134°56'1 0.0
2014-Apr-14 13:34N 34°37' E 134°57'2411.8
2014-Apr-14 11:32N 34°37' E 135°26'0 0.0
2014-Apr-14 09:32N 34°37' E 135°26'0 0.0
2014-Apr-14 08:32N 34°37' E 135°26'  

Dump ship's entire track history

sailing weather and tide predictions

Orange8 — JL6278 — position and weather